सभी
Coonamble Airport (Coonamble, New South Wales) CNB मौसम
|
Coonamble, New South Wales (CNB / YCNM)
स्वच्छ आकाश
हल्की हवाएं |
|
14 °C |
There is no TAF data available at CNB or any nearby airports.
Recent CNB METAR history
| Date | Time (AEST) | Flight Rules | Wind Dir. | Speed | Type | Height AGL (ft) | Visibility | Temp (°C) | Temp (°F) | Dew Point (°C) | Dew Point (°F) | Rel. Humid. | Pressure | Density Altitude | Remarks |
|---|---|---|---|---|---|---|---|---|---|---|---|---|---|---|---|
| 05-मई | 21:00 | n/a | 190° | 8 kt | Missing | 14° | 57° | 7° | 44° | 63% | 1021 mb | 254 ft | |||
| 05-मई | 20:00 | n/a | 200° | 7 kt | Missing | 14° | 57° | 8° | 46° | 67% | 1021 mb | 254 ft | |||
| 05-मई | 19:00 | n/a | 200° | 8 kt | Missing | 16° | 60° | 8° | 46° | 59% | 1020 mb | 523 ft | |||
| 05-मई | 18:00 | n/a | 190° | 6 kt | Missing | 16° | 60° | 9° | 48° | 63% | 1020 mb | 523 ft | |||
| 05-मई | 17:00 | n/a | 190° | 9 kt | Missing | 20° | 68° | 8° | 46° | 46% | 1019 mb | 1,033 ft | |||
| 05-मई | 16:00 | n/a | 190° | 12 kt | Missing | 21° | 69° | 8° | 46° | 43% | 1019 mb | 1,153 ft | |||
| 05-मई | 15:00 | n/a | 190° | 12 kt | Missing | 21° | 69° | 7° | 44° | 40% | 1019 mb | 1,153 ft | |||
| 05-मई | 14:00 | n/a | 180° | 14 kt | Missing | 20° | 68° | 7° | 44° | 43% | 1018 mb | 1,062 ft | |||
| 05-मई | 13:00 | n/a | 190° | 13 kt | Missing | 21° | 69° | 8° | 46° | 43% | 1019 mb | 1,153 ft | |||
| 05-मई | 12:00 | n/a | 190° | 12 kt | Missing | 20° | 68° | 8° | 46° | 46% | 1020 mb | 1,003 ft | |||
| 05-मई | 11:00 | n/a | 170° | 11 kt | Missing | 19° | 66° | 8° | 46° | 49% | 1020 mb | 883 ft | |||
| 05-मई | 10:00 | n/a | 170° | 9 kt | Missing | 16° | 60° | 12° | 53° | 77% | 1021 mb | 494 ft | |||
| 05-मई | 09:00 | n/a | 170° | 9 kt | Missing | 15° | 59° | 12° | 53° | 82% | 1021 mb | 374 ft | |||
| 05-मई | 08:00 | n/a | 170° | 6 kt | Missing | 13° | 55° | 12° | 53° | 94% | 1020 mb | 163 ft | |||
| 05-मई | 07:00 | n/a | 190° | 6 kt | Missing | 12° | 53° | 12° | 53° | 100% | 1019 mb | 73 ft | |||
| 05-मई | 06:00 | n/a | 210° | 6 kt | Missing | 13° | 55° | 12° | 53° | 94% | 1019 mb | 193 ft | |||
| 05-मई | 05:00 | n/a | 220° | 5 kt | Missing | 13° | 55° | 12° | 53° | 94% | 1019 mb | 193 ft | |||
| 05-मई | 04:00 | n/a | 210° | 7 kt | Missing | 15° | 59° | 13° | 55° | 88% | 1018 mb | 462 ft | |||
| 05-मई | 03:00 | n/a | 190° | 6 kt | Missing | 14° | 57° | 13° | 55° | 94% | 1018 mb | 342 ft | |||
| 05-मई | 02:00 | n/a | 200° | 7 kt | Missing | 14° | 57° | 13° | 55° | 94% | 1018 mb | 342 ft | |||
| 05-मई | 01:00 | n/a | 200° | 6 kt | Missing | 15° | 59° | 14° | 57° | 94% | 1018 mb | 462 ft | |||
| 05-मई | 00:00 | n/a | 190° | 6 kt | Missing | 15° | 59° | 14° | 57° | 94% | 1018 mb | 462 ft | |||
| 04-मई | 23:00 | n/a | 200° | 5 kt | Missing | 16° | 60° | 15° | 59° | 94% | 1018 mb | 582 ft | |||
| 04-मई | 22:00 | n/a | 220° | 3 kt | Missing | 16° | 60° | 15° | 59° | 94% | 1018 mb | 582 ft |
लॉगिन
| Your browser is unsupported. अपना ब्राऊजर अपग्रेड करें |
